sensor_id;sensor_type;location;lat;lon;timestamp;P1;durP1;ratioP1;P2;durP2;ratioP2
58896;SDS011;44677;52.378;10.400;2024-03-23T00:51:10;17.20;;;8.30;;
58896;SDS011;44677;52.378;10.400;2024-03-23T00:56:02;8.30;;;4.20;;
58896;SDS011;44677;52.378;10.400;2024-03-23T00:58:28;8.50;;;3.30;;
58896;SDS011;44677;52.378;10.400;2024-03-23T01:00:53;5.70;;;2.90;;
58896;SDS011;44677;52.378;10.400;2024-03-23T01:03:19;4.60;;;2.50;;
58896;SDS011;44677;52.378;10.400;2024-03-23T01:05:44;7.40;;;2.80;;
58896;SDS011;44677;52.378;10.400;2024-03-23T01:08:10;5.10;;;2.80;;
58896;SDS011;44677;52.378;10.400;2024-03-23T01:10:35;5.70;;;2.70;;
58896;SDS011;44677;52.378;10.400;2024-03-23T01:13:01;7.30;;;3.30;;
58896;SDS011;44677;52.378;10.400;2024-03-23T01:15:26;6.00;;;2.60;;
58896;SDS011;44677;52.378;10.400;2024-03-23T01:17:52;7.80;;;2.70;;
58896;SDS011;44677;52.378;10.400;2024-03-23T01:20:17;6.30;;;2.30;;
58896;SDS011;44677;52.378;10.400;2024-03-23T01:22:42;5.10;;;2.30;;
58896;SDS011;44677;52.378;10.400;2024-03-23T01:25:08;5.60;;;2.80;;
58896;SDS011;44677;52.378;10.400;2024-03-23T01:27:33;4.20;;;2.60;;
58896;SDS011;44677;52.378;10.400;2024-03-23T01:29:59;3.70;;;2.50;;
58896;SDS011;44677;52.378;10.400;2024-03-23T01:32:25;5.20;;;2.60;;
58896;SDS011;44677;52.378;10.400;2024-03-23T01:34:50;5.20;;;2.90;;
58896;SDS011;44677;52.378;10.400;2024-03-23T01:37:15;3.50;;;2.90;;
58896;SDS011;44677;52.378;10.400;2024-03-23T01:39:41;8.70;;;3.00;;
58896;SDS011;44677;52.378;10.400;2024-03-23T01:42:06;5.10;;;3.40;;
58896;SDS011;44677;52.378;10.400;2024-03-23T01:44:32;8.10;;;4.40;;
58896;SDS011;44677;52.378;10.400;2024-03-23T01:46:57;10.00;;;4.60;;
58896;SDS011;44677;52.378;10.400;2024-03-23T01:49:23;10.00;;;5.00;;
58896;SDS011;44677;52.378;10.400;2024-03-23T01:51:49;10.00;;;5.00;;
58896;SDS011;44677;52.378;10.400;2024-03-23T01:54:15;13.90;;;5.80;;
58896;SDS011;44677;52.378;10.400;2024-03-23T01:56:41;14.70;;;6.40;;
58896;SDS011;44677;52.378;10.400;2024-03-23T01:59:07;9.00;;;4.70;;
58896;SDS011;44677;52.378;10.400;2024-03-23T02:01:33;13.20;;;5.70;;
58896;SDS011;44677;52.378;10.400;2024-03-23T02:04:01;10.00;;;5.30;;
58896;SDS011;44677;52.378;10.400;2024-03-23T02:06:27;14.20;;;5.00;;
58896;SDS011;44677;52.378;10.400;2024-03-23T02:08:53;14.80;;;6.10;;
58896;SDS011;44677;52.378;10.400;2024-03-23T02:11:19;12.80;;;5.00;;
58896;SDS011;44677;52.378;10.400;2024-03-23T02:13:44;13.80;;;4.50;;
58896;SDS011;44677;52.378;10.400;2024-03-23T02:16:10;8.00;;;4.10;;
58896;SDS011;44677;52.378;10.400;2024-03-23T02:18:35;8.20;;;4.20;;
58896;SDS011;44677;52.378;10.400;2024-03-23T02:21:01;8.80;;;3.90;;
58896;SDS011;44677;52.378;10.400;2024-03-23T02:23:26;9.00;;;4.00;;
58896;SDS011;44677;52.378;10.400;2024-03-23T02:25:52;6.60;;;3.60;;
58896;SDS011;44677;52.378;10.400;2024-03-23T02:28:21;11.40;;;4.10;;
58896;SDS011;44677;52.378;10.400;2024-03-23T02:30:48;6.40;;;4.00;;
58896;SDS011;44677;52.378;10.400;2024-03-23T02:33:14;9.30;;;3.70;;
58896;SDS011;44677;52.378;10.400;2024-03-23T02:35:40;5.70;;;3.50;;
58896;SDS011;44677;52.378;10.400;2024-03-23T02:38:05;11.40;;;4.00;;
58896;SDS011;44677;52.378;10.400;2024-03-23T02:40:30;10.70;;;5.10;;
58896;SDS011;44677;52.378;10.400;2024-03-23T02:42:56;10.40;;;4.10;;
58896;SDS011;44677;52.378;10.400;2024-03-23T02:45:21;8.80;;;4.00;;
58896;SDS011;44677;52.378;10.400;2024-03-23T02:47:47;8.90;;;3.90;;
58896;SDS011;44677;52.378;10.400;2024-03-23T02:50:17;9.10;;;4.10;;
58896;SDS011;44677;52.378;10.400;2024-03-23T02:52:44;8.10;;;3.80;;
58896;SDS011;44677;52.378;10.400;2024-03-23T02:55:09;8.60;;;3.80;;
58896;SDS011;44677;52.378;10.400;2024-03-23T02:57:35;8.20;;;4.10;;
58896;SDS011;44677;52.378;10.400;2024-03-23T03:00:00;7.10;;;4.50;;
58896;SDS011;44677;52.378;10.400;2024-03-23T03:02:26;9.70;;;3.80;;
58896;SDS011;44677;52.378;10.400;2024-03-23T03:04:51;9.50;;;4.80;;
58896;SDS011;44677;52.378;10.400;2024-03-23T03:07:17;9.00;;;4.40;;
58896;SDS011;44677;52.378;10.400;2024-03-23T03:09:42;12.20;;;5.20;;
58896;SDS011;44677;52.378;10.400;2024-03-23T03:12:08;10.80;;;4.40;;
58896;SDS011;44677;52.378;10.400;2024-03-23T03:14:34;15.00;;;5.80;;
58896;SDS011;44677;52.378;10.400;2024-03-23T03:16:59;11.80;;;4.70;;
58896;SDS011;44677;52.378;10.400;2024-03-23T03:19:25;9.00;;;4.00;;
58896;SDS011;44677;52.378;10.400;2024-03-23T03:21:51;11.30;;;4.60;;
58896;SDS011;44677;52.378;10.400;2024-03-23T03:24:16;10.20;;;4.60;;
58896;SDS011;44677;52.378;10.400;2024-03-23T03:26:42;9.40;;;4.70;;
58896;SDS011;44677;52.378;10.400;2024-03-23T03:29:08;13.20;;;4.80;;
58896;SDS011;44677;52.378;10.400;2024-03-23T03:31:33;10.10;;;4.80;;
58896;SDS011;44677;52.378;10.400;2024-03-23T03:33:59;8.90;;;4.80;;
58896;SDS011;44677;52.378;10.400;2024-03-23T03:36:24;9.10;;;4.80;;
58896;SDS011;44677;52.378;10.400;2024-03-23T03:38:50;10.90;;;5.00;;
58896;SDS011;44677;52.378;10.400;2024-03-23T03:41:15;10.70;;;4.40;;
58896;SDS011;44677;52.378;10.400;2024-03-23T03:43:41;10.80;;;5.30;;
58896;SDS011;44677;52.378;10.400;2024-03-23T03:46:06;10.80;;;5.40;;
58896;SDS011;44677;52.378;10.400;2024-03-23T03:48:36;12.10;;;5.00;;
58896;SDS011;44677;52.378;10.400;2024-03-23T03:51:02;11.50;;;4.90;;
58896;SDS011;44677;52.378;10.400;2024-03-23T03:53:28;12.00;;;5.50;;
58896;SDS011;44677;52.378;10.400;2024-03-23T03:55:53;12.70;;;5.60;;
58896;SDS011;44677;52.378;10.400;2024-03-23T03:58:19;11.00;;;4.90;;
58896;SDS011;44677;52.378;10.400;2024-03-23T04:00:44;8.80;;;4.90;;
58896;SDS011;44677;52.378;10.400;2024-03-23T04:03:10;9.80;;;5.60;;
58896;SDS011;44677;52.378;10.400;2024-03-23T04:05:35;8.50;;;4.90;;
58896;SDS011;44677;52.378;10.400;2024-03-23T04:08:01;10.90;;;5.00;;
58896;SDS011;44677;52.378;10.400;2024-03-23T04:10:26;11.20;;;4.90;;
58896;SDS011;44677;52.378;10.400;2024-03-23T04:12:52;10.50;;;4.40;;
58896;SDS011;44677;52.378;10.400;2024-03-23T04:15:18;8.70;;;4.90;;
58896;SDS011;44677;52.378;10.400;2024-03-23T04:17:44;13.00;;;4.50;;
58896;SDS011;44677;52.378;10.400;2024-03-23T04:20:10;13.20;;;4.60;;
58896;SDS011;44677;52.378;10.400;2024-03-23T04:22:39;9.20;;;4.10;;
58896;SDS011;44677;52.378;10.400;2024-03-23T04:25:05;9.00;;;4.20;;
58896;SDS011;44677;52.378;10.400;2024-03-23T04:27:39;11.70;;;4.30;;
58896;SDS011;44677;52.378;10.400;2024-03-23T04:30:05;9.50;;;4.20;;
58896;SDS011;44677;52.378;10.400;2024-03-23T04:32:36;11.30;;;4.30;;
58896;SDS011;44677;52.378;10.400;2024-03-23T04:35:02;10.70;;;4.50;;
58896;SDS011;44677;52.378;10.400;2024-03-23T04:37:31;7.60;;;4.10;;
58896;SDS011;44677;52.378;10.400;2024-03-23T04:39:59;10.40;;;4.50;;
58896;SDS011;44677;52.378;10.400;2024-03-23T04:42:25;9.60;;;3.90;;
58896;SDS011;44677;52.378;10.400;2024-03-23T04:44:51;9.10;;;3.80;;
58896;SDS011;44677;52.378;10.400;2024-03-23T04:47:16;9.80;;;4.50;;
58896;SDS011;44677;52.378;10.400;2024-03-23T04:49:42;10.70;;;5.00;;
58896;SDS011;44677;52.378;10.400;2024-03-23T04:52:07;10.80;;;4.00;;
58896;SDS011;44677;52.378;10.400;2024-03-23T04:54:32;11.50;;;4.70;;
58896;SDS011;44677;52.378;10.400;2024-03-23T04:56:58;10.70;;;4.10;;
58896;SDS011;44677;52.378;10.400;2024-03-23T04:59:24;11.00;;;4.60;;
58896;SDS011;44677;52.378;10.400;2024-03-23T05:01:50;12.40;;;4.10;;
58896;SDS011;44677;52.378;10.400;2024-03-23T05:04:15;9.20;;;4.10;;
58896;SDS011;44677;52.378;10.400;2024-03-23T05:06:41;8.70;;;2.80;;
58896;SDS011;44677;52.378;10.400;2024-03-23T05:09:06;7.40;;;3.00;;
58896;SDS011;44677;52.378;10.400;2024-03-23T05:11:35;10.30;;;2.70;;
58896;SDS011;44677;52.378;10.400;2024-03-23T05:14:01;11.70;;;2.10;;
58896;SDS011;44677;52.378;10.400;2024-03-23T05:16:28;10.30;;;2.50;;
58896;SDS011;44677;52.378;10.400;2024-03-23T05:18:53;7.90;;;2.20;;
58896;SDS011;44677;52.378;10.400;2024-03-23T05:21:19;9.50;;;2.20;;
58896;SDS011;44677;52.378;10.400;2024-03-23T05:23:44;8.10;;;2.00;;
58896;SDS011;44677;52.378;10.400;2024-03-23T05:26:10;7.20;;;2.20;;
58896;SDS011;44677;52.378;10.400;2024-03-23T05:28:36;4.60;;;1.70;;
58896;SDS011;44677;52.378;10.400;2024-03-23T05:31:01;8.60;;;2.40;;
58896;SDS011;44677;52.378;10.400;2024-03-23T05:33:27;6.00;;;1.90;;
58896;SDS011;44677;52.378;10.400;2024-03-23T05:35:59;12.50;;;2.30;;
58896;SDS011;44677;52.378;10.400;2024-03-23T05:38:26;10.70;;;2.60;;
58896;SDS011;44677;52.378;10.400;2024-03-23T05:40:55;10.40;;;2.20;;
58896;SDS011;44677;52.378;10.400;2024-03-23T05:43:21;9.20;;;2.30;;
58896;SDS011;44677;52.378;10.400;2024-03-23T05:45:56;8.90;;;2.20;;
58896;SDS011;44677;52.378;10.400;2024-03-23T05:48:23;7.80;;;2.00;;
58896;SDS011;44677;52.378;10.400;2024-03-23T05:50:49;9.80;;;2.60;;
58896;SDS011;44677;52.378;10.400;2024-03-23T05:53:15;5.90;;;2.20;;
58896;SDS011;44677;52.378;10.400;2024-03-23T05:55:41;12.10;;;2.50;;
58896;SDS011;44677;52.378;10.400;2024-03-23T05:58:07;11.90;;;2.80;;
58896;SDS011;44677;52.378;10.400;2024-03-23T06:00:32;10.30;;;2.70;;
58896;SDS011;44677;52.378;10.400;2024-03-23T06:02:58;9.70;;;2.50;;
58896;SDS011;44677;52.378;10.400;2024-03-23T06:05:23;12.90;;;2.80;;
58896;SDS011;44677;52.378;10.400;2024-03-23T06:07:49;8.50;;;2.20;;
58896;SDS011;44677;52.378;10.400;2024-03-23T06:10:15;4.20;;;2.30;;
58896;SDS011;44677;52.378;10.400;2024-03-23T06:12:41;8.60;;;1.70;;
58896;SDS011;44677;52.378;10.400;2024-03-23T06:15:06;4.80;;;1.90;;
58896;SDS011;44677;52.378;10.400;2024-03-23T06:17:36;5.90;;;1.70;;
58896;SDS011;44677;52.378;10.400;2024-03-23T06:20:02;6.70;;;1.50;;
58896;SDS011;44677;52.378;10.400;2024-03-23T06:22:28;4.50;;;1.30;;
58896;SDS011;44677;52.378;10.400;2024-03-23T06:24:53;13.40;;;2.20;;
58896;SDS011;44677;52.378;10.400;2024-03-23T06:27:19;6.50;;;1.80;;
58896;SDS011;44677;52.378;10.400;2024-03-23T06:29:44;5.10;;;1.60;;
58896;SDS011;44677;52.378;10.400;2024-03-23T06:32:10;6.50;;;1.50;;
58896;SDS011;44677;52.378;10.400;2024-03-23T06:34:35;6.90;;;1.80;;
58896;SDS011;44677;52.378;10.400;2024-03-23T06:37:01;3.80;;;1.50;;
58896;SDS011;44677;52.378;10.400;2024-03-23T06:39:27;5.00;;;1.30;;
58896;SDS011;44677;52.378;10.400;2024-03-23T06:41:53;4.40;;;1.40;;
58896;SDS011;44677;52.378;10.400;2024-03-23T06:44:19;6.20;;;1.50;;
58896;SDS011;44677;52.378;10.400;2024-03-23T06:46:45;5.40;;;1.40;;
58896;SDS011;44677;52.378;10.400;2024-03-23T06:49:11;5.50;;;1.60;;
58896;SDS011;44677;52.378;10.400;2024-03-23T06:51:36;5.50;;;1.60;;
58896;SDS011;44677;52.378;10.400;2024-03-23T06:54:03;4.20;;;2.00;;
58896;SDS011;44677;52.378;10.400;2024-03-23T06:56:29;4.30;;;1.50;;
58896;SDS011;44677;52.378;10.400;2024-03-23T06:58:55;9.20;;;2.00;;
58896;SDS011;44677;52.378;10.400;2024-03-23T07:01:21;8.00;;;1.80;;
58896;SDS011;44677;52.378;10.400;2024-03-23T07:03:49;5.80;;;1.40;;
58896;SDS011;44677;52.378;10.400;2024-03-23T07:06:15;5.90;;;1.90;;
58896;SDS011;44677;52.378;10.400;2024-03-23T07:08:40;6.30;;;1.40;;
58896;SDS011;44677;52.378;10.400;2024-03-23T07:11:06;6.80;;;2.10;;
58896;SDS011;44677;52.378;10.400;2024-03-23T07:13:32;7.30;;;1.90;;
58896;SDS011;44677;52.378;10.400;2024-03-23T07:15:57;6.80;;;2.10;;
58896;SDS011;44677;52.378;10.400;2024-03-23T07:18:25;6.80;;;2.20;;
58896;SDS011;44677;52.378;10.400;2024-03-23T07:20:53;8.10;;;2.20;;
58896;SDS011;44677;52.378;10.400;2024-03-23T07:23:20;4.90;;;1.70;;
58896;SDS011;44677;52.378;10.400;2024-03-23T07:25:45;7.30;;;1.90;;
58896;SDS011;44677;52.378;10.400;2024-03-23T07:28:21;9.80;;;2.30;;
58896;SDS011;44677;52.378;10.400;2024-03-23T07:33:28;7.00;;;2.60;;
58896;SDS011;44677;52.378;10.400;2024-03-23T07:35:54;6.20;;;2.40;;
58896;SDS011;44677;52.378;10.400;2024-03-23T07:38:27;11.20;;;1.90;;
58896;SDS011;44677;52.378;10.400;2024-03-23T07:41:06;6.40;;;2.40;;
58896;SDS011;44677;52.378;10.400;2024-03-23T07:43:32;6.50;;;1.80;;
58896;SDS011;44677;52.378;10.400;2024-03-23T07:45:58;8.00;;;2.00;;
58896;SDS011;44677;52.378;10.400;2024-03-23T07:48:25;10.20;;;2.00;;
58896;SDS011;44677;52.378;10.400;2024-03-23T07:51:09;6.60;;;2.10;;
58896;SDS011;44677;52.378;10.400;2024-03-23T07:53:42;7.90;;;1.90;;
58896;SDS011;44677;52.378;10.400;2024-03-23T07:56:08;5.20;;;2.10;;
58896;SDS011;44677;52.378;10.400;2024-03-23T07:58:38;8.80;;;2.20;;
58896;SDS011;44677;52.378;10.400;2024-03-23T08:01:04;6.10;;;2.20;;
58896;SDS011;44677;52.378;10.400;2024-03-23T08:03:35;5.10;;;1.90;;
58896;SDS011;44677;52.378;10.400;2024-03-23T08:06:06;5.90;;;1.80;;
58896;SDS011;44677;52.378;10.400;2024-03-23T08:08:33;10.10;;;2.00;;
58896;SDS011;44677;52.378;10.400;2024-03-23T08:10:59;6.00;;;1.80;;
58896;SDS011;44677;52.378;10.400;2024-03-23T08:13:25;6.30;;;2.10;;
58896;SDS011;44677;52.378;10.400;2024-03-23T08:15:50;4.50;;;1.80;;
58896;SDS011;44677;52.378;10.400;2024-03-23T08:18:16;4.80;;;1.50;;
58896;SDS011;44677;52.378;10.400;2024-03-23T08:20:41;6.40;;;1.80;;
58896;SDS011;44677;52.378;10.400;2024-03-23T08:23:07;6.70;;;2.00;;
58896;SDS011;44677;52.378;10.400;2024-03-23T08:25:33;3.60;;;1.80;;
58896;SDS011;44677;52.378;10.400;2024-03-23T08:27:59;8.60;;;2.90;;
58896;SDS011;44677;52.378;10.400;2024-03-23T08:30:24;9.00;;;2.20;;
58896;SDS011;44677;52.378;10.400;2024-03-23T08:32:50;8.50;;;2.70;;
58896;SDS011;44677;52.378;10.400;2024-03-23T08:35:15;14.50;;;3.20;;
58896;SDS011;44677;52.378;10.400;2024-03-23T08:37:41;7.70;;;2.90;;
58896;SDS011;44677;52.378;10.400;2024-03-23T08:40:06;11.60;;;3.40;;
58896;SDS011;44677;52.378;10.400;2024-03-23T08:42:33;8.70;;;3.50;;
58896;SDS011;44677;52.378;10.400;2024-03-23T08:44:59;15.80;;;4.10;;
58896;SDS011;44677;52.378;10.400;2024-03-23T08:47:25;11.60;;;3.50;;
58896;SDS011;44677;52.378;10.400;2024-03-23T08:49:50;16.60;;;3.80;;
58896;SDS011;44677;52.378;10.400;2024-03-23T08:52:16;14.10;;;4.60;;
58896;SDS011;44677;52.378;10.400;2024-03-23T08:54:42;13.70;;;4.10;;
58896;SDS011;44677;52.378;10.400;2024-03-23T08:57:07;16.60;;;4.80;;
58896;SDS011;44677;52.378;10.400;2024-03-23T08:59:33;9.50;;;3.60;;
58896;SDS011;44677;52.378;10.400;2024-03-23T09:01:59;17.30;;;4.30;;
58896;SDS011;44677;52.378;10.400;2024-03-23T09:04:25;12.30;;;4.40;;
58896;SDS011;44677;52.378;10.400;2024-03-23T09:06:51;17.30;;;5.00;;
58896;SDS011;44677;52.378;10.400;2024-03-23T09:09:17;13.60;;;4.90;;
58896;SDS011;44677;52.378;10.400;2024-03-23T09:11:43;16.70;;;5.00;;
58896;SDS011;44677;52.378;10.400;2024-03-23T09:14:08;15.10;;;5.30;;
58896;SDS011;44677;52.378;10.400;2024-03-23T09:16:34;13.90;;;4.90;;
58896;SDS011;44677;52.378;10.400;2024-03-23T09:19:00;20.50;;;6.40;;
58896;SDS011;44677;52.378;10.400;2024-03-23T09:21:26;17.40;;;5.40;;
58896;SDS011;44677;52.378;10.400;2024-03-23T09:23:51;16.70;;;5.50;;
58896;SDS011;44677;52.378;10.400;2024-03-23T09:26:17;14.70;;;5.60;;
58896;SDS011;44677;52.378;10.400;2024-03-23T09:28:42;18.30;;;5.30;;
58896;SDS011;44677;52.378;10.400;2024-03-23T09:31:08;14.80;;;5.50;;
58896;SDS011;44677;52.378;10.400;2024-03-23T09:33:36;17.90;;;5.90;;
58896;SDS011;44677;52.378;10.400;2024-03-23T09:36:05;17.00;;;7.10;;
58896;SDS011;44677;52.378;10.400;2024-03-23T09:38:31;17.60;;;7.20;;
58896;SDS011;44677;52.378;10.400;2024-03-23T09:40:57;17.70;;;6.90;;
58896;SDS011;44677;52.378;10.400;2024-03-23T09:43:23;16.60;;;6.50;;
58896;SDS011;44677;52.378;10.400;2024-03-23T09:45:49;19.50;;;6.50;;
58896;SDS011;44677;52.378;10.400;2024-03-23T09:48:15;22.00;;;7.00;;
58896;SDS011;44677;52.378;10.400;2024-03-23T09:50:41;23.90;;;7.30;;
58896;SDS011;44677;52.378;10.400;2024-03-23T09:53:08;18.80;;;6.80;;
58896;SDS011;44677;52.378;10.400;2024-03-23T09:55:36;15.60;;;6.60;;
58896;SDS011;44677;52.378;10.400;2024-03-23T09:58:02;24.40;;;7.00;;
58896;SDS011;44677;52.378;10.400;2024-03-23T10:00:30;17.30;;;6.20;;
58896;SDS011;44677;52.378;10.400;2024-03-23T10:02:57;17.70;;;5.80;;
58896;SDS011;44677;52.378;10.400;2024-03-23T10:05:30;17.30;;;6.30;;
58896;SDS011;44677;52.378;10.400;2024-03-23T10:10:42;12.50;;;5.40;;
58896;SDS011;44677;52.378;10.400;2024-03-23T10:13:08;8.10;;;3.20;;
58896;SDS011;44677;52.378;10.400;2024-03-23T10:15:34;12.50;;;4.40;;
58896;SDS011;44677;52.378;10.400;2024-03-23T10:18:20;9.60;;;3.50;;
58896;SDS011;44677;52.378;10.400;2024-03-23T10:20:51;11.30;;;3.50;;
58896;SDS011;44677;52.378;10.400;2024-03-23T10:23:46;16.00;;;3.80;;
58896;SDS011;44677;52.378;10.400;2024-03-23T10:26:21;11.50;;;4.40;;
58896;SDS011;44677;52.378;10.400;2024-03-23T10:28:54;10.20;;;3.70;;
58896;SDS011;44677;52.378;10.400;2024-03-23T10:31:23;12.30;;;4.30;;
58896;SDS011;44677;52.378;10.400;2024-03-23T10:33:49;11.20;;;4.80;;
58896;SDS011;44677;52.378;10.400;2024-03-23T10:36:15;12.90;;;4.60;;
58896;SDS011;44677;52.378;10.400;2024-03-23T10:38:41;7.80;;;3.40;;
58896;SDS011;44677;52.378;10.400;2024-03-23T10:41:11;7.20;;;2.30;;
58896;SDS011;44677;52.378;10.400;2024-03-23T10:43:37;8.30;;;2.50;;
58896;SDS011;44677;52.378;10.400;2024-03-23T10:46:03;7.00;;;2.50;;
58896;SDS011;44677;52.378;10.400;2024-03-23T10:48:29;5.10;;;2.10;;
58896;SDS011;44677;52.378;10.400;2024-03-23T10:50:54;6.30;;;2.60;;
58896;SDS011;44677;52.378;10.400;2024-03-23T10:53:25;8.10;;;2.90;;
58896;SDS011;44677;52.378;10.400;2024-03-23T10:55:51;7.30;;;2.50;;
58896;SDS011;44677;52.378;10.400;2024-03-23T10:58:30;9.70;;;3.40;;
58896;SDS011;44677;52.378;10.400;2024-03-23T11:00:58;11.60;;;3.30;;
58896;SDS011;44677;52.378;10.400;2024-03-23T11:03:34;9.60;;;3.40;;
58896;SDS011;44677;52.378;10.400;2024-03-23T11:06:04;8.70;;;4.00;;
58896;SDS011;44677;52.378;10.400;2024-03-23T11:08:40;8.30;;;3.60;;
58896;SDS011;44677;52.378;10.400;2024-03-23T11:11:18;10.10;;;3.80;;
58896;SDS011;44677;52.378;10.400;2024-03-23T11:13:48;7.60;;;3.10;;
58896;SDS011;44677;52.378;10.400;2024-03-23T11:16:28;14.20;;;3.90;;
58896;SDS011;44677;52.378;10.400;2024-03-23T11:22:04;9.90;;;3.20;;
58896;SDS011;44677;52.378;10.400;2024-03-23T11:24:30;9.30;;;3.20;;
58896;SDS011;44677;52.378;10.400;2024-03-23T11:26:56;7.60;;;2.70;;
58896;SDS011;44677;52.378;10.400;2024-03-23T11:29:25;7.20;;;3.60;;
58896;SDS011;44677;52.378;10.400;2024-03-23T11:31:51;7.40;;;2.50;;
58896;SDS011;44677;52.378;10.400;2024-03-23T11:34:18;8.40;;;2.20;;
58896;SDS011;44677;52.378;10.400;2024-03-23T11:36:45;6.60;;;2.30;;
58896;SDS011;44677;52.378;10.400;2024-03-23T11:39:12;3.60;;;2.20;;
58896;SDS011;44677;52.378;10.400;2024-03-23T11:44:20;4.70;;;2.20;;
58896;SDS011;44677;52.378;10.400;2024-03-23T11:46:48;5.90;;;2.30;;
58896;SDS011;44677;52.378;10.400;2024-03-23T11:51:49;4.20;;;2.40;;
58896;SDS011;44677;52.378;10.400;2024-03-23T11:54:16;5.70;;;2.60;;
58896;SDS011;44677;52.378;10.400;2024-03-23T11:56:54;5.00;;;2.60;;
58896;SDS011;44677;52.378;10.400;2024-03-23T11:59:34;3.30;;;2.60;;
58896;SDS011;44677;52.378;10.400;2024-03-23T12:02:08;5.70;;;2.50;;
58896;SDS011;44677;52.378;10.400;2024-03-23T12:04:36;7.70;;;3.00;;
58896;SDS011;44677;52.378;10.400;2024-03-23T12:09:38;7.60;;;2.40;;
58896;SDS011;44677;52.378;10.400;2024-03-23T12:12:06;3.70;;;2.30;;
58896;SDS011;44677;52.378;10.400;2024-03-23T12:14:32;6.10;;;2.00;;
58896;SDS011;44677;52.378;10.400;2024-03-23T12:17:07;7.90;;;2.60;;
58896;SDS011;44677;52.378;10.400;2024-03-23T12:19:34;2.40;;;1.90;;
58896;SDS011;44677;52.378;10.400;2024-03-23T12:21:59;4.60;;;2.40;;
58896;SDS011;44677;52.378;10.400;2024-03-23T12:24:26;2.70;;;1.70;;
58896;SDS011;44677;52.378;10.400;2024-03-23T12:26:51;3.60;;;1.90;;
58896;SDS011;44677;52.378;10.400;2024-03-23T12:29:17;5.40;;;2.40;;
58896;SDS011;44677;52.378;10.400;2024-03-23T12:31:43;4.60;;;2.30;;
58896;SDS011;44677;52.378;10.400;2024-03-23T12:34:09;7.20;;;2.30;;
58896;SDS011;44677;52.378;10.400;2024-03-23T12:36:34;4.00;;;1.90;;
58896;SDS011;44677;52.378;10.400;2024-03-23T12:39:00;3.80;;;2.20;;
58896;SDS011;44677;52.378;10.400;2024-03-23T12:41:25;2.70;;;1.60;;
58896;SDS011;44677;52.378;10.400;2024-03-23T12:43:51;3.40;;;1.70;;
58896;SDS011;44677;52.378;10.400;2024-03-23T12:46:16;2.20;;;1.80;;
58896;SDS011;44677;52.378;10.400;2024-03-23T12:48:44;1.50;;;1.40;;
58896;SDS011;44677;52.378;10.400;2024-03-23T12:51:10;2.00;;;1.50;;
58896;SDS011;44677;52.378;10.400;2024-03-23T12:53:35;3.80;;;1.40;;
58896;SDS011;44677;52.378;10.400;2024-03-23T12:56:01;2.30;;;1.20;;
58896;SDS011;44677;52.378;10.400;2024-03-23T12:58:27;3.00;;;1.40;;
58896;SDS011;44677;52.378;10.400;2024-03-23T13:00:52;2.50;;;1.60;;
58896;SDS011;44677;52.378;10.400;2024-03-23T13:03:18;2.40;;;1.80;;
58896;SDS011;44677;52.378;10.400;2024-03-23T13:05:43;3.90;;;1.70;;
58896;SDS011;44677;52.378;10.400;2024-03-23T13:08:08;2.70;;;1.70;;
58896;SDS011;44677;52.378;10.400;2024-03-23T13:10:34;4.50;;;1.80;;
58896;SDS011;44677;52.378;10.400;2024-03-23T13:12:59;1.60;;;1.50;;
58896;SDS011;44677;52.378;10.400;2024-03-23T13:15:25;5.40;;;1.90;;
58896;SDS011;44677;52.378;10.400;2024-03-23T13:17:50;2.40;;;1.90;;
58896;SDS011;44677;52.378;10.400;2024-03-23T13:20:17;2.40;;;1.90;;
58896;SDS011;44677;52.378;10.400;2024-03-23T13:22:42;3.00;;;2.30;;
58896;SDS011;44677;52.378;10.400;2024-03-23T13:25:08;2.70;;;2.10;;
58896;SDS011;44677;52.378;10.400;2024-03-23T13:27:33;4.60;;;2.00;;
58896;SDS011;44677;52.378;10.400;2024-03-23T13:29:59;6.80;;;2.30;;
58896;SDS011;44677;52.378;10.400;2024-03-23T13:32:24;3.20;;;2.10;;
58896;SDS011;44677;52.378;10.400;2024-03-23T13:34:50;2.40;;;2.20;;
58896;SDS011;44677;52.378;10.400;2024-03-23T13:37:15;5.30;;;2.40;;
58896;SDS011;44677;52.378;10.400;2024-03-23T13:39:41;3.30;;;2.40;;
58896;SDS011;44677;52.378;10.400;2024-03-23T13:42:09;3.10;;;2.10;;
58896;SDS011;44677;52.378;10.400;2024-03-23T13:44:37;4.40;;;2.20;;
58896;SDS011;44677;52.378;10.400;2024-03-23T13:47:03;4.10;;;2.40;;
58896;SDS011;44677;52.378;10.400;2024-03-23T13:49:29;5.10;;;2.30;;
58896;SDS011;44677;52.378;10.400;2024-03-23T13:54:23;3.70;;;2.20;;
58896;SDS011;44677;52.378;10.400;2024-03-23T13:56:52;2.40;;;1.80;;
58896;SDS011;44677;52.378;10.400;2024-03-23T13:59:19;2.80;;;2.10;;
58896;SDS011;44677;52.378;10.400;2024-03-23T14:01:46;3.30;;;2.00;;
58896;SDS011;44677;52.378;10.400;2024-03-23T14:04:12;3.40;;;1.70;;
58896;SDS011;44677;52.378;10.400;2024-03-23T14:06:38;6.00;;;1.80;;
58896;SDS011;44677;52.378;10.400;2024-03-23T14:09:05;3.40;;;1.60;;
58896;SDS011;44677;52.378;10.400;2024-03-23T14:11:35;2.10;;;1.30;;
58896;SDS011;44677;52.378;10.400;2024-03-23T14:14:02;1.40;;;1.30;;
58896;SDS011;44677;52.378;10.400;2024-03-23T14:16:29;5.10;;;1.80;;
58896;SDS011;44677;52.378;10.400;2024-03-23T14:18:57;2.70;;;1.40;;
58896;SDS011;44677;52.378;10.400;2024-03-23T14:21:23;3.40;;;1.70;;
58896;SDS011;44677;52.378;10.400;2024-03-23T14:23:49;2.60;;;1.30;;
58896;SDS011;44677;52.378;10.400;2024-03-23T14:26:14;3.80;;;1.80;;
58896;SDS011;44677;52.378;10.400;2024-03-23T14:28:40;2.50;;;1.50;;
58896;SDS011;44677;52.378;10.400;2024-03-23T14:31:06;2.20;;;1.60;;
58896;SDS011;44677;52.378;10.400;2024-03-23T14:33:36;2.30;;;1.50;;
58896;SDS011;44677;52.378;10.400;2024-03-23T14:36:03;3.10;;;1.40;;
58896;SDS011;44677;52.378;10.400;2024-03-23T14:38:29;2.30;;;1.50;;
58896;SDS011;44677;52.378;10.400;2024-03-23T14:40:57;4.20;;;1.60;;
58896;SDS011;44677;52.378;10.400;2024-03-23T14:43:27;3.30;;;1.90;;
58896;SDS011;44677;52.378;10.400;2024-03-23T14:46:06;3.00;;;1.70;;
58896;SDS011;44677;52.378;10.400;2024-03-23T14:48:31;6.00;;;1.60;;
58896;SDS011;44677;52.378;10.400;2024-03-23T14:50:58;2.60;;;1.90;;
58896;SDS011;44677;52.378;10.400;2024-03-23T14:55:50;4.10;;;2.20;;
58896;SDS011;44677;52.378;10.400;2024-03-23T14:58:15;2.70;;;1.80;;
58896;SDS011;44677;52.378;10.400;2024-03-23T15:00:41;2.40;;;2.00;;
58896;SDS011;44677;52.378;10.400;2024-03-23T15:03:06;3.60;;;2.60;;
58896;SDS011;44677;52.378;10.400;2024-03-23T15:05:32;3.00;;;2.30;;
58896;SDS011;44677;52.378;10.400;2024-03-23T15:07:57;5.40;;;2.90;;
58896;SDS011;44677;52.378;10.400;2024-03-23T15:10:23;3.30;;;1.90;;
58896;SDS011;44677;52.378;10.400;2024-03-23T15:12:49;4.00;;;2.30;;
58896;SDS011;44677;52.378;10.400;2024-03-23T15:15:14;3.70;;;2.30;;
58896;SDS011;44677;52.378;10.400;2024-03-23T15:17:41;3.90;;;2.40;;
58896;SDS011;44677;52.378;10.400;2024-03-23T15:20:10;3.90;;;2.40;;
58896;SDS011;44677;52.378;10.400;2024-03-23T15:22:37;2.70;;;2.10;;
58896;SDS011;44677;52.378;10.400;2024-03-23T15:25:02;4.50;;;2.10;;
58896;SDS011;44677;52.378;10.400;2024-03-23T15:27:28;2.70;;;2.00;;
58896;SDS011;44677;52.378;10.400;2024-03-23T15:29:55;3.30;;;1.80;;
58896;SDS011;44677;52.378;10.400;2024-03-23T15:32:21;2.50;;;1.80;;
58896;SDS011;44677;52.378;10.400;2024-03-23T15:34:47;12.30;;;2.20;;
58896;SDS011;44677;52.378;10.400;2024-03-23T15:37:12;1.50;;;1.30;;
58896;SDS011;44677;52.378;10.400;2024-03-23T15:39:38;1.10;;;0.90;;
58896;SDS011;44677;52.378;10.400;2024-03-23T15:42:03;1.20;;;0.90;;